createdAt,value
2022-07-30T00:00:39.839Z,18.20
2022-07-30T00:03:07.838Z,18.20
2022-07-30T00:05:35.940Z,18.20
2022-07-30T00:08:05.775Z,18.20
2022-07-30T00:10:33.964Z,18.20
2022-07-30T00:13:02.002Z,18.00
2022-07-30T00:15:30.169Z,17.90
2022-07-30T00:17:58.325Z,17.80
2022-07-30T00:20:28.119Z,17.70
2022-07-30T00:22:56.412Z,17.60
2022-07-30T00:25:25.937Z,17.60
2022-07-30T00:27:54.076Z,17.60
2022-07-30T00:30:22.176Z,17.50
2022-07-30T00:32:50.228Z,17.60
2022-07-30T00:35:18.419Z,17.50
2022-07-30T00:37:46.464Z,17.50
2022-07-30T00:40:14.604Z,17.40
2022-07-30T00:42:46.452Z,17.40
2022-07-30T00:45:16.726Z,17.40
2022-07-30T00:47:45.127Z,17.40
2022-07-30T00:50:15.117Z,17.40
2022-07-30T00:52:44.204Z,17.40
2022-07-30T00:55:14.094Z,17.40
2022-07-30T00:57:44.391Z,17.40
2022-07-30T01:00:16.660Z,17.40
2022-07-30T01:02:45.021Z,17.30
2022-07-30T01:05:13.415Z,17.30
2022-07-30T01:07:41.526Z,17.30
2022-07-30T01:10:11.590Z,17.30
2022-07-30T01:12:40.413Z,17.30
2022-07-30T01:15:11.632Z,17.30
2022-07-30T01:17:40.447Z,17.20
2022-07-30T01:20:11.669Z,17.30
2022-07-30T01:22:53.289Z,17.20
2022-07-30T01:25:31.276Z,17.10
2022-07-30T01:28:10.217Z,17.20
2022-07-30T01:30:42.745Z,17.20
2022-07-30T01:33:15.284Z,17.10
2022-07-30T01:35:46.017Z,17.10
2022-07-30T01:38:16.611Z,17.10
2022-07-30T01:40:46.038Z,17.20
2022-07-30T01:43:15.795Z,17.30
2022-07-30T01:45:45.058Z,17.30
2022-07-30T01:48:14.424Z,17.30
2022-07-30T01:50:46.233Z,17.30
2022-07-30T01:53:17.930Z,17.40
2022-07-30T01:55:46.945Z,17.50
2022-07-30T01:58:20.731Z,17.60
2022-07-30T02:00:51.049Z,17.70
2022-07-30T02:03:19.271Z,17.70
2022-07-30T02:05:54.589Z,17.80
2022-07-30T02:08:28.930Z,17.60
2022-07-30T02:11:05.599Z,17.70
2022-07-30T02:13:39.355Z,17.60
2022-07-30T02:16:15.025Z,17.70
2022-07-30T02:18:50.057Z,17.70
2022-07-30T02:21:20.441Z,17.70
2022-07-30T02:23:50.306Z,17.70
2022-07-30T02:26:22.075Z,17.70
2022-07-30T02:28:55.979Z,17.70
2022-07-30T02:31:28.179Z,17.50
2022-07-30T02:33:59.941Z,17.40
2022-07-30T02:36:29.842Z,17.40
2022-07-30T02:38:59.094Z,17.30
2022-07-30T02:41:30.357Z,17.30
2022-07-30T02:44:02.827Z,17.30
2022-07-30T02:46:32.689Z,17.20
2022-07-30T02:49:02.123Z,17.20
2022-07-30T02:51:31.585Z,17.20
2022-07-30T02:54:01.205Z,17.20
2022-07-30T02:56:30.298Z,17.20
2022-07-30T02:59:03.566Z,17.30
2022-07-30T03:01:34.122Z,17.30
2022-07-30T03:04:03.792Z,17.20
2022-07-30T03:06:32.959Z,17.20
2022-07-30T03:09:02.075Z,17.20
2022-07-30T03:11:32.777Z,17.20
2022-07-30T03:14:02.245Z,17.20
2022-07-30T03:16:31.887Z,17.30
2022-07-30T03:19:05.312Z,17.20
2022-07-30T03:21:36.618Z,17.10
2022-07-30T03:24:07.522Z,17.20
2022-07-30T03:26:37.667Z,17.20
2022-07-30T03:29:09.668Z,17.30
2022-07-30T03:31:39.750Z,17.20
2022-07-30T03:34:08.797Z,17.20
2022-07-30T03:36:37.265Z,17.20
2022-07-30T03:39:06.259Z,17.20
2022-07-30T03:41:35.147Z,17.20
2022-07-30T03:44:04.133Z,17.20
2022-07-30T03:46:36.201Z,17.30
2022-07-30T03:49:06.022Z,17.30
2022-07-30T03:51:35.524Z,17.30
2022-07-30T03:54:08.457Z,17.20
2022-07-30T03:56:40.434Z,17.20
2022-07-30T03:59:08.907Z,17.20
2022-07-30T04:01:38.484Z,17.20
2022-07-30T04:04:07.778Z,17.20
2022-07-30T04:06:39.630Z,17.20
2022-07-30T04:09:08.789Z,17.30
2022-07-30T04:11:40.950Z,17.30
2022-07-30T04:14:09.934Z,17.40
2022-07-30T04:16:47.651Z,17.20
2022-07-30T04:19:20.773Z,17.20
2022-07-30T04:21:50.374Z,17.20
2022-07-30T04:24:19.813Z,17.20
2022-07-30T04:26:49.207Z,17.10
2022-07-30T04:29:21.379Z,17.10
2022-07-30T04:31:56.070Z,17.10
2022-07-30T04:34:24.037Z,17.10
2022-07-30T04:36:52.006Z,17.10
2022-07-30T04:39:20.021Z,17.10
2022-07-30T04:41:49.658Z,17.20
2022-07-30T04:44:19.756Z,17.20
2022-07-30T04:46:48.093Z,17.30
2022-07-30T04:49:20.231Z,17.30
2022-07-30T04:51:49.939Z,17.30
2022-07-30T04:54:19.107Z,17.30
2022-07-30T04:56:52.479Z,17.20
2022-07-30T04:59:24.757Z,17.30
2022-07-30T05:01:54.627Z,17.40
2022-07-30T05:04:25.109Z,17.40
2022-07-30T05:06:54.535Z,17.50
2022-07-30T05:09:24.007Z,17.50
2022-07-30T05:11:53.021Z,17.60
2022-07-30T05:14:21.060Z,17.60
2022-07-30T05:16:49.214Z,17.60
2022-07-30T05:19:17.646Z,17.60
2022-07-30T05:21:47.398Z,17.50
2022-07-30T05:24:15.550Z,17.60
2022-07-30T05:26:43.726Z,17.60
2022-07-30T05:29:14.919Z,17.60
2022-07-30T05:31:47.995Z,17.60
2022-07-30T05:34:16.048Z,17.60
2022-07-30T05:36:44.624Z,17.70
2022-07-30T05:39:14.408Z,17.80
2022-07-30T05:41:42.403Z,17.80
2022-07-30T05:44:10.368Z,17.90
2022-07-30T05:46:38.475Z,18.00
2022-07-30T05:49:07.362Z,18.10
2022-07-30T05:51:35.406Z,18.10
2022-07-30T05:54:03.458Z,18.10
2022-07-30T05:56:32.938Z,18.20
2022-07-30T05:59:01.130Z,18.20
2022-07-30T06:01:29.309Z,18.20
2022-07-30T06:03:57.373Z,18.20
2022-07-30T06:06:25.353Z,18.30
2022-07-30T06:08:53.634Z,18.40
2022-07-30T06:11:21.667Z,18.40
2022-07-30T06:13:51.260Z,18.50
2022-07-30T06:16:19.351Z,18.50
2022-07-30T06:18:47.538Z,18.60
2022-07-30T06:21:15.582Z,18.70
2022-07-30T06:23:43.717Z,18.80
2022-07-30T06:26:11.803Z,18.90
2022-07-30T06:28:39.937Z,19.00
2022-07-30T06:31:09.468Z,19.10
2022-07-30T06:33:37.490Z,19.10
2022-07-30T06:36:05.593Z,19.00
2022-07-30T06:38:36.616Z,19.00
2022-07-30T06:41:04.773Z,19.00
2022-07-30T06:43:33.103Z,19.00
2022-07-30T06:46:01.302Z,19.00
2022-07-30T06:48:31.671Z,19.00
2022-07-30T06:50:59.910Z,19.10
2022-07-30T06:53:28.123Z,19.10
2022-07-30T06:55:58.558Z,19.10
2022-07-30T06:58:29.210Z,19.10
2022-07-30T07:00:57.395Z,19.10
2022-07-30T07:03:39.902Z,19.10
2022-07-30T07:06:10.431Z,19.10
2022-07-30T07:08:39.197Z,19.10
2022-07-30T07:11:07.455Z,19.30
2022-07-30T07:13:35.498Z,19.30
2022-07-30T07:16:04.134Z,19.30
2022-07-30T07:18:32.478Z,19.40
2022-07-30T07:21:00.594Z,19.40
2022-07-30T07:23:39.812Z,19.50
2022-07-30T07:26:11.127Z,19.50
2022-07-30T07:28:40.009Z,19.50
2022-07-30T07:31:08.329Z,19.60
2022-07-30T07:33:36.692Z,19.70
2022-07-30T07:36:05.350Z,19.80
2022-07-30T07:38:34.980Z,19.80
2022-07-30T07:41:03.049Z,19.80
2022-07-30T07:43:31.174Z,19.80
2022-07-30T07:45:59.696Z,19.90
2022-07-30T07:48:27.927Z,19.90
2022-07-30T07:50:59.898Z,19.90
2022-07-30T07:53:28.271Z,20.10
2022-07-30T07:55:57.781Z,20.20
2022-07-30T07:58:26.684Z,20.30
2022-07-30T08:00:55.306Z,20.30
2022-07-30T08:03:23.457Z,20.30
2022-07-30T08:06:01.223Z,20.20
2022-07-30T08:08:36.494Z,20.20
2022-07-30T08:11:09.738Z,20.30
2022-07-30T08:13:51.614Z,20.30
2022-07-30T08:16:23.811Z,20.40
2022-07-30T08:18:51.895Z,20.50
2022-07-30T08:21:20.061Z,20.60
2022-07-30T08:23:51.081Z,20.70
2022-07-30T08:26:20.515Z,20.80
2022-07-30T08:28:48.608Z,20.90
2022-07-30T08:31:17.546Z,20.90
2022-07-30T08:33:45.520Z,20.90
2022-07-30T08:36:13.530Z,20.80
2022-07-30T08:38:41.614Z,20.90
2022-07-30T08:41:09.677Z,21.00
2022-07-30T08:43:40.847Z,21.00
2022-07-30T08:46:14.913Z,21.10
2022-07-30T08:48:44.121Z,21.10
2022-07-30T08:51:12.677Z,21.10
2022-07-30T08:53:42.795Z,21.20
2022-07-30T08:56:11.108Z,21.30
2022-07-30T08:58:40.532Z,21.40
2022-07-30T09:01:08.652Z,21.50
2022-07-30T09:03:44.455Z,21.60
2022-07-30T09:06:12.884Z,21.60
2022-07-30T09:08:41.046Z,21.60
2022-07-30T09:11:09.238Z,21.60
2022-07-30T09:13:42.256Z,21.60
2022-07-30T09:16:21.257Z,21.70
2022-07-30T09:18:50.032Z,21.70
2022-07-30T09:21:21.535Z,21.80
2022-07-30T09:24:00.750Z,21.80
2022-07-30T09:26:32.939Z,21.90
2022-07-30T09:29:17.175Z,22.00
2022-07-30T09:32:00.725Z,22.10
2022-07-30T09:34:31.271Z,22.10
2022-07-30T09:37:00.536Z,22.20
2022-07-30T09:39:33.207Z,22.20
2022-07-30T09:42:02.144Z,22.20
2022-07-30T09:44:31.638Z,22.20
2022-07-30T09:47:02.918Z,22.30
2022-07-30T09:49:32.820Z,22.20
2022-07-30T09:52:01.427Z,22.30
2022-07-30T09:54:51.150Z,22.40
2022-07-30T09:57:25.946Z,22.50
2022-07-30T09:59:56.747Z,22.50
2022-07-30T10:02:35.252Z,22.40
2022-07-30T10:05:13.873Z,22.30
2022-07-30T10:07:51.008Z,22.40
2022-07-30T10:10:25.205Z,22.50
2022-07-30T10:12:57.883Z,22.60
2022-07-30T10:15:28.839Z,22.60
2022-07-30T10:17:59.272Z,22.70
2022-07-30T10:20:29.468Z,22.80
2022-07-30T10:22:58.281Z,22.90
2022-07-30T10:25:28.319Z,22.90
2022-07-30T10:27:57.934Z,22.80
2022-07-30T10:30:29.331Z,22.80
2022-07-30T10:33:01.485Z,22.90
2022-07-30T10:35:34.930Z,22.90
2022-07-30T10:38:13.812Z,22.90
2022-07-30T10:40:49.056Z,23.10
2022-07-30T10:43:56.609Z,23.30
2022-07-30T10:46:37.939Z,23.50
2022-07-30T10:49:17.416Z,23.70
2022-07-30T10:51:48.999Z,23.80
2022-07-30T10:54:40.305Z,23.70
2022-07-30T10:57:14.900Z,23.40
2022-07-30T11:00:15.598Z,23.20
2022-07-30T11:03:20.482Z,23.20
2022-07-30T11:05:52.957Z,23.30
2022-07-30T11:08:59.083Z,23.50
2022-07-30T11:12:01.161Z,23.70
2022-07-30T11:15:07.531Z,23.90
2022-07-30T11:18:02.215Z,24.10
2022-07-30T11:20:31.058Z,24.10
2022-07-30T11:23:26.714Z,24.00
2022-07-30T11:25:55.786Z,23.70
2022-07-30T11:28:38.943Z,23.50
2022-07-30T11:31:54.827Z,23.30
2022-07-30T11:34:30.674Z,23.20
2022-07-30T11:37:18.723Z,23.20
2022-07-30T11:40:14.611Z,23.30
2022-07-30T11:42:48.338Z,23.50
2022-07-30T11:45:36.625Z,23.70
2022-07-30T11:48:11.626Z,23.90
2022-07-30T11:50:40.035Z,24.00
2022-07-30T11:53:10.097Z,24.10
2022-07-30T11:55:41.395Z,24.20
2022-07-30T11:58:11.426Z,24.10
2022-07-30T12:00:41.634Z,24.10
2022-07-30T12:03:14.306Z,24.20
2022-07-30T12:05:46.522Z,24.20
2022-07-30T12:08:35.231Z,24.20
2022-07-30T12:11:06.146Z,24.20
2022-07-30T12:13:44.149Z,24.20
2022-07-30T12:20:01.999Z,24.20
2022-07-30T12:22:34.107Z,24.10
2022-07-30T12:25:13.730Z,24.20
2022-07-30T12:27:51.998Z,24.20
2022-07-30T12:30:20.794Z,24.20
2022-07-30T12:32:50.130Z,23.90
2022-07-30T12:35:18.311Z,23.70
2022-07-30T12:38:05.458Z,23.50
2022-07-30T12:40:33.401Z,23.60
2022-07-30T12:43:02.914Z,23.50
2022-07-30T12:45:52.139Z,23.40
2022-07-30T12:48:20.266Z,23.30
2022-07-30T12:50:50.073Z,23.50
2022-07-30T12:53:18.089Z,23.70
2022-07-30T12:55:46.151Z,23.90
2022-07-30T12:58:15.555Z,24.10
2022-07-30T13:00:51.974Z,24.10
2022-07-30T13:03:24.206Z,24.20
2022-07-30T13:05:55.594Z,24.30
2022-07-30T13:08:47.103Z,24.30
2022-07-30T13:11:15.770Z,24.50
2022-07-30T13:13:45.489Z,24.50
2022-07-30T13:16:13.985Z,24.60
2022-07-30T13:18:42.300Z,24.50
2022-07-30T13:21:11.242Z,24.50
2022-07-30T13:23:40.261Z,24.50
2022-07-30T13:26:10.257Z,24.60
2022-07-30T13:28:38.607Z,24.70
2022-07-30T13:31:09.236Z,24.80
2022-07-30T13:33:37.975Z,24.80
2022-07-30T13:36:06.740Z,24.80
2022-07-30T13:38:35.485Z,24.80
2022-07-30T13:41:03.408Z,24.80
2022-07-30T13:43:33.627Z,24.80
2022-07-30T13:46:02.991Z,24.80
2022-07-30T13:48:32.910Z,24.70
2022-07-30T13:51:01.726Z,24.60
2022-07-30T13:53:29.772Z,24.40
2022-07-30T13:55:59.353Z,24.40
2022-07-30T13:58:28.149Z,24.40
2022-07-30T14:00:57.926Z,24.30
2022-07-30T14:03:25.910Z,24.20
2022-07-30T14:05:55.659Z,24.30
2022-07-30T14:08:38.071Z,24.50
2022-07-30T14:11:06.113Z,24.70
2022-07-30T14:13:34.246Z,24.80
2022-07-30T14:16:02.239Z,24.90
2022-07-30T14:18:30.247Z,24.90
2022-07-30T14:20:59.751Z,24.80
2022-07-30T14:23:28.077Z,25.00
2022-07-30T14:25:56.144Z,25.10
2022-07-30T14:28:24.533Z,25.20
2022-07-30T14:30:52.636Z,25.20
2022-07-30T14:33:21.663Z,25.20
2022-07-30T14:35:49.728Z,25.20
2022-07-30T14:38:19.780Z,25.10
2022-07-30T14:40:47.947Z,24.80
2022-07-30T14:43:17.925Z,24.80
2022-07-30T14:45:50.458Z,24.80
2022-07-30T14:48:18.571Z,24.80
2022-07-30T14:51:11.617Z,24.90
2022-07-30T14:53:35.971Z,24.90
2022-07-30T14:56:04.234Z,24.90
2022-07-30T14:58:32.282Z,24.80
2022-07-30T15:01:16.107Z,24.80
2022-07-30T15:03:45.393Z,24.80
2022-07-30T15:06:15.214Z,24.90
2022-07-30T15:08:46.007Z,24.70
2022-07-30T15:11:14.198Z,24.60
2022-07-30T15:13:50.326Z,24.50
2022-07-30T15:16:18.823Z,24.30
2022-07-30T15:18:47.142Z,24.20
2022-07-30T15:21:15.516Z,24.10
2022-07-30T15:23:45.003Z,24.00
2022-07-30T15:26:13.055Z,23.90
2022-07-30T15:28:41.052Z,24.00
2022-07-30T15:31:09.059Z,24.00
2022-07-30T15:33:41.779Z,24.10
2022-07-30T15:36:10.220Z,24.20
2022-07-30T15:38:38.612Z,24.20
2022-07-30T15:41:13.061Z,24.20
2022-07-30T15:43:41.650Z,24.30
2022-07-30T15:46:09.727Z,24.30
2022-07-30T15:48:38.322Z,24.30
2022-07-30T15:51:06.790Z,24.40
2022-07-30T15:53:34.870Z,24.40
2022-07-30T15:56:02.915Z,24.40
2022-07-30T15:58:32.410Z,24.40
2022-07-30T16:01:00.743Z,24.30
2022-07-30T16:03:28.877Z,24.40
2022-07-30T16:05:57.437Z,24.40
2022-07-30T16:08:25.459Z,24.40
2022-07-30T16:10:53.504Z,24.30
2022-07-30T16:13:21.525Z,24.20
2022-07-30T16:15:51.037Z,24.20
2022-07-30T16:18:19.148Z,24.00
2022-07-30T16:20:47.206Z,23.90
2022-07-30T16:23:21.124Z,23.80
2022-07-30T16:25:49.842Z,23.80
2022-07-30T16:28:17.916Z,23.70
2022-07-30T16:30:51.439Z,23.60
2022-07-30T16:33:21.777Z,23.50
2022-07-30T16:35:51.077Z,23.40
2022-07-30T16:38:19.875Z,23.30
2022-07-30T16:40:48.293Z,23.30
2022-07-30T16:43:18.722Z,23.30
2022-07-30T16:45:48.048Z,23.20
2022-07-30T16:48:16.421Z,23.30
2022-07-30T16:50:46.235Z,23.30
2022-07-30T16:53:15.370Z,23.40
2022-07-30T16:55:43.568Z,23.40
2022-07-30T16:58:12.088Z,23.30
2022-07-30T17:00:41.092Z,23.30
2022-07-30T17:03:09.455Z,23.30
2022-07-30T17:05:44.960Z,23.20
2022-07-30T17:08:15.197Z,23.20
2022-07-30T17:10:46.121Z,23.10
2022-07-30T17:13:16.073Z,23.00
2022-07-30T17:15:44.327Z,22.90
2022-07-30T17:18:14.973Z,22.90
2022-07-30T17:20:42.964Z,22.80
2022-07-30T17:23:11.104Z,22.80
2022-07-30T17:25:40.678Z,22.80
2022-07-30T17:28:08.842Z,22.70
2022-07-30T17:30:36.834Z,22.70
2022-07-30T17:33:06.351Z,22.70
2022-07-30T17:35:34.425Z,22.60
2022-07-30T17:38:02.550Z,22.60
2022-07-30T17:40:31.964Z,22.50
2022-07-30T17:43:04.693Z,22.40
2022-07-30T17:45:34.176Z,22.40
2022-07-30T17:48:02.633Z,22.40
2022-07-30T17:50:35.850Z,22.40
2022-07-30T17:53:05.676Z,22.40
2022-07-30T17:55:35.120Z,22.40
2022-07-30T17:58:06.200Z,22.40
2022-07-30T18:00:35.330Z,22.40
2022-07-30T18:03:03.914Z,22.40
2022-07-30T18:05:31.986Z,22.30
2022-07-30T18:08:00.092Z,22.20
2022-07-30T18:10:28.115Z,22.20
2022-07-30T18:12:56.282Z,22.20
2022-07-30T18:15:25.794Z,22.10
2022-07-30T18:17:53.830Z,22.00
2022-07-30T18:20:22.076Z,22.00
2022-07-30T18:22:51.511Z,22.00
2022-07-30T18:25:20.127Z,21.90
2022-07-30T18:27:52.296Z,21.90
2022-07-30T18:30:20.642Z,21.80
2022-07-30T18:32:50.582Z,21.80
2022-07-30T18:35:18.796Z,21.80
2022-07-30T18:37:48.279Z,21.70
2022-07-30T18:40:23.752Z,21.70
2022-07-30T18:42:52.599Z,21.70
2022-07-30T18:45:20.791Z,21.70
2022-07-30T18:47:50.413Z,21.60
2022-07-30T18:50:19.071Z,21.60
2022-07-30T18:52:47.324Z,21.60
2022-07-30T18:55:17.286Z,21.50
2022-07-30T18:57:45.671Z,21.50
2022-07-30T19:00:34.035Z,21.40
2022-07-30T19:03:04.861Z,21.30
2022-07-30T19:05:33.082Z,21.30
2022-07-30T19:08:01.175Z,21.30
2022-07-30T19:10:29.362Z,21.20
2022-07-30T19:12:57.671Z,21.20
2022-07-30T19:15:26.065Z,21.20
2022-07-30T19:17:54.292Z,21.10
2022-07-30T19:20:24.382Z,21.10
2022-07-30T19:23:00.548Z,21.00
2022-07-30T19:25:29.153Z,21.00
2022-07-30T19:27:57.410Z,21.00
2022-07-30T19:30:25.675Z,21.00
2022-07-30T19:32:53.728Z,21.00
2022-07-30T19:35:23.197Z,21.00
2022-07-30T19:37:51.263Z,20.90
2022-07-30T19:40:19.708Z,20.90
2022-07-30T19:42:48.062Z,20.90
2022-07-30T19:45:23.846Z,20.80
2022-07-30T19:47:52.007Z,20.90
2022-07-30T19:50:20.047Z,20.80
2022-07-30T19:52:56.714Z,20.80
2022-07-30T19:55:35.129Z,20.80
2022-07-30T19:58:17.583Z,20.80
2022-07-30T20:00:49.253Z,20.70
2022-07-30T20:03:19.096Z,20.70
2022-07-30T20:06:07.682Z,20.80
2022-07-30T20:08:37.215Z,20.80
2022-07-30T20:11:08.286Z,20.80
2022-07-30T20:13:44.485Z,20.80
2022-07-30T20:16:14.610Z,20.70
2022-07-30T20:18:44.319Z,20.70
2022-07-30T20:21:15.639Z,20.70
2022-07-30T20:23:46.479Z,20.70
2022-07-30T20:26:15.851Z,20.70
2022-07-30T20:28:45.005Z,20.70
2022-07-30T20:31:13.945Z,20.70
2022-07-30T20:33:43.980Z,20.70
2022-07-30T20:36:18.116Z,20.70
2022-07-30T20:38:47.843Z,20.60
2022-07-30T20:41:16.349Z,20.60
2022-07-30T20:43:46.098Z,20.50
2022-07-30T20:46:19.932Z,20.50
2022-07-30T20:48:47.965Z,20.60
2022-07-30T20:51:15.977Z,20.60
2022-07-30T20:53:45.283Z,20.60
2022-07-30T20:56:15.062Z,20.60
2022-07-30T20:58:46.135Z,20.60
2022-07-30T21:01:17.654Z,20.60
2022-07-30T21:03:47.867Z,20.60
2022-07-30T21:06:16.865Z,20.50
2022-07-30T21:08:44.944Z,20.50
2022-07-30T21:11:14.654Z,20.40
2022-07-30T21:13:42.766Z,20.40
2022-07-30T21:16:16.065Z,20.50
2022-07-30T21:18:49.890Z,20.40
2022-07-30T21:21:30.815Z,20.40
2022-07-30T21:24:11.479Z,20.40
2022-07-30T21:26:42.084Z,20.40
2022-07-30T21:29:10.543Z,20.20
2022-07-30T21:32:08.729Z,20.10
2022-07-30T21:34:33.635Z,20.00
2022-07-30T21:37:04.162Z,20.00
2022-07-30T21:39:32.189Z,20.00
2022-07-30T21:42:10.159Z,20.00
2022-07-30T21:44:38.484Z,19.90
2022-07-30T21:47:10.323Z,19.90
2022-07-30T21:49:39.235Z,19.80
2022-07-30T21:52:08.357Z,19.80
2022-07-30T21:54:45.184Z,19.70
2022-07-30T21:57:15.343Z,19.80
2022-07-30T21:59:51.448Z,19.80
2022-07-30T22:02:19.779Z,19.90
2022-07-30T22:04:50.515Z,19.90
2022-07-30T22:07:18.691Z,19.90
2022-07-30T22:09:50.004Z,19.80
2022-07-30T22:12:19.879Z,19.70
2022-07-30T22:14:49.473Z,19.60
2022-07-30T22:17:23.586Z,19.60
2022-07-30T22:20:08.645Z,19.60
2022-07-30T22:22:39.649Z,19.60
2022-07-30T22:25:09.775Z,19.60
2022-07-30T22:27:55.962Z,19.50
2022-07-30T22:30:27.201Z,19.50
2022-07-30T22:32:55.745Z,19.40
2022-07-30T22:35:33.639Z,19.40
2022-07-30T22:38:12.465Z,19.40
2022-07-30T22:40:41.032Z,19.40
2022-07-30T22:43:13.681Z,19.50
2022-07-30T22:45:48.737Z,19.50
2022-07-30T22:48:20.326Z,19.50
2022-07-30T22:50:56.009Z,19.50
2022-07-30T22:54:03.657Z,19.50
2022-07-30T22:56:15.457Z,19.40
2022-07-30T22:58:45.369Z,19.40
2022-07-30T23:01:16.895Z,19.40
2022-07-30T23:03:45.033Z,19.50
2022-07-30T23:06:14.547Z,19.60
2022-07-30T23:08:44.356Z,19.70
2022-07-30T23:11:12.389Z,19.70
2022-07-30T23:13:40.604Z,19.80
2022-07-30T23:16:10.032Z,19.80
2022-07-30T23:18:38.145Z,19.80
2022-07-30T23:21:06.421Z,19.80
2022-07-30T23:23:35.601Z,19.80
2022-07-30T23:26:03.951Z,19.90
2022-07-30T23:28:32.057Z,19.90
2022-07-30T23:31:00.154Z,19.90
2022-07-30T23:33:29.585Z,19.90
2022-07-30T23:35:57.669Z,19.90
2022-07-30T23:38:25.664Z,19.80
2022-07-30T23:40:53.853Z,19.80
2022-07-30T23:43:22.104Z,19.80
2022-07-30T23:45:50.205Z,19.70
2022-07-30T23:48:18.160Z,19.70
2022-07-30T23:50:47.516Z,19.60
2022-07-30T23:53:15.693Z,19.50
2022-07-30T23:55:47.498Z,19.60
2022-07-30T23:58:15.647Z,19.70
